NCAR-RAP Real-Time Weather Data

Output produced by METARs form (14 October 2019  23:23 UTC)
found at http://weather.rap.ucar.edu/surface/
 
KPHX 142251Z 00000KT 10SM FEW070 SCT095 SCT120 29/12 A2981 RMK AO2 SLP080 T02940122 $
KPHX 142151Z VRB05KT 10SM SCT070 29/12 A2982 RMK AO2 SLP082 T02940122 $
KPHX 142051Z 17007KT 10SM SCT075 31/12 A2983 RMK AO2 SLP083 T03110122 58024 $
KPHX 141951Z 16007KT 10SM FEW070 31/13 A2986 RMK AO2 SLP093 T03060133 $
KPHX 141851Z 11007KT 10SM FEW070 28/13 A2988 RMK AO2 SLP102 T02830133 $
KPHX 141751Z 08007KT 10SM FEW070 27/11 A2990 RMK AO2 SLP110 T02720106 10272 20183 58001 $
KPHX 141651Z 10007KT 10SM FEW070 FEW100 26/07 A2992 RMK AO2 SLP115 T02560072 $
KPHX 141551Z 11007KT 10SM FEW100 24/05 A2992 RMK AO2 SLP117 T02390050 $
KPHX 141451Z 08008KT 10SM FEW100 21/04 A2990 RMK AO2 SLP110 T02060039 53013 $
KPHX 141351Z 10006KT 10SM FEW100 19/04 A2988 RMK AO2 SLP104 T01890039 $
KPHX 141251Z 09008KT 10SM CLR 19/04 A2988 RMK AO2 SLP101 T01890039 $
KPHX 141151Z 10006KT 10SM CLR 19/04 A2986 RMK AO2 SLP097 T01890044 10250 20189 53007 $
KPHX 141051Z 08005KT 10SM CLR 20/04 A2984 RMK AO2 SLP090 T02000039 $
KPHX 140951Z 09006KT 10SM CLR 21/03 A2984 RMK AO2 SLP089 T02110033 $
KPHX 140851Z 11005KT 10SM CLR 21/04 A2984 RMK AO2 SLP088 T02060039 53005 $
KPHX 140751Z 13004KT 10SM CLR 22/04 A2983 RMK AO2 SLP086 T02220039 $
KPHX 140651Z 10003KT 10SM CLR 23/04 A2982 RMK AO2 SLP081 T02280044 403390178 $
KPHX 140551Z 00000KT 10SM CLR 23/04 A2982 RMK AO2 SLP084 T02330044 10317 20233 51009 $
KPHX 140451Z 00000KT 10SM CLR 25/03 A2981 RMK AO2 SLP080 T02500028 $
KPHX 140351Z 23003KT 10SM CLR 26/02 A2981 RMK AO2 SLP078 T02610022 $
KPHX 140251Z 32003KT 10SM CLR 29/M01 A2980 RMK AO2 SLP074 T02891006 53004 $
KPHX 140151Z 32006KT 10SM CLR 30/M01 A2978 RMK AO2 SLP071 T03001006 $
KPHX 140051Z 34007KT 10SM FEW250 31/M01 A2978 RMK AO2 SLP069 T03111006 $
KPHX 132351Z 00000KT 10SM FEW250 32/M01 A2978 RMK AO2 SLP070 T03221006 10339 20267 56013 $
KPHX 132251Z VRB04KT 10SM FEW250 32/M01 A2980 RMK AO2 SLP074 T03171006 $
KPHX 132151Z VRB03KT 10SM FEW250 32/M01 A2981 RMK AO2 SLP077 T03221011 $
KPHX 132051Z 00000KT 10SM CLR 32/01 A2983 RMK AO2 SLP083 T03170006 58025 $
KPHX 131951Z 12006KT 10SM CLR 31/01 A2985 RMK AO2 SLP092 T03110006 $
KPHX 131851Z 14004KT 10SM CLR 29/00 A2988 RMK AO2 SLP104 T02890000 $
KPHX 131751Z 15004KT 10SM CLR 27/02 A2990 RMK AO2 SLP109 T02720017 10272 20178 50002 $
KPHX 131651Z 13005KT 10SM CLR 24/02 A2991 RMK AO2 SLP113 T02440022
KPHX 131551Z 13007KT 10SM CLR 23/03 A2991 RMK AO2 SLP115 T02280033
KPHX 131451Z 09007KT 10SM CLR 21/05 A2989 RMK AO2 SLP107 T02060050 53012
KPHX 131351Z 09006KT 10SM CLR 18/04 A2987 RMK AO2 SLP102 T01780044
KPHX 131251Z 10005KT 10SM CLR 18/03 A2986 RMK AO2 SLP097 T01830033
KPHX 131151Z 11005KT 10SM CLR 19/03 A2986 RMK AO2 SLP095 T01890033 10256 20189 53002
KPHX 131051Z 14006KT 10SM CLR 19/04 A2985 RMK AO2 SLP094 T01940044
KPHX 130951Z 10006KT 10SM CLR 20/05 A2984 RMK AO2 SLP090 T02000050
KPHX 130851Z 10004KT 10SM CLR 21/05 A2985 RMK AO2 SLP093 T02060050 51006
KPHX 130751Z 09004KT 10SM CLR 22/04 A2985 RMK AO2 SLP092 T02170039
KPHX 130651Z 00000KT 10SM CLR 22/04 A2984 RMK AO2 SLP089 T02220044 403220178
KPHX 130551Z 34004KT 10SM FEW100 26/01 A2983 RMK AO2 SLP085 T02560006 10317 20239 51005
KPHX 130451Z 25004KT 10SM CLR 24/02 A2983 RMK AO2 SLP085 T02440017
KPHX 130351Z 22003KT 10SM CLR 25/03 A2982 RMK AO2 SLP084 T02500028
KPHX 130251Z 30004KT 10SM CLR 28/00 A2982 RMK AO2 SLP081 T02830000 53009
KPHX 130151Z 29009KT 10SM CLR 29/00 A2980 RMK AO2 SLP076 T02940000
KPHX 130051Z 29009KT 10SM CLR 31/M01 A2979 RMK AO2 SLP072 T03061006
KPHX 122351Z 31006KT 10SM CLR 31/M01 A2979 RMK AO2 SLP072 T03111006 10322 20278 56010